sensor_id;sensor_type;location;lat;lon;timestamp;pressure;altitude;pressure_sealevel;temperature;humidity
15444;BME280;7822;48.146;11.576;2023-03-18T00:02:18;94710.47;;;14.40;61.21
15444;BME280;7822;48.146;11.576;2023-03-18T00:04:47;94707.84;;;14.40;61.54
15444;BME280;7822;48.146;11.576;2023-03-18T00:07:14;94706.06;;;14.40;61.28
15444;BME280;7822;48.146;11.576;2023-03-18T00:09:42;94711.28;;;14.40;61.51
15444;BME280;7822;48.146;11.576;2023-03-18T00:12:10;94719.13;;;14.40;61.26
15444;BME280;7822;48.146;11.576;2023-03-18T00:14:39;94715.69;;;14.40;61.31
15444;BME280;7822;48.146;11.576;2023-03-18T00:17:07;94714.84;;;14.39;61.32
15444;BME280;7822;48.146;11.576;2023-03-18T00:19:35;94721.84;;;14.39;61.60
15444;BME280;7822;48.146;11.576;2023-03-18T00:22:03;94722.84;;;14.38;61.33
15444;BME280;7822;48.146;11.576;2023-03-18T00:24:31;94723.69;;;14.38;61.02
15444;BME280;7822;48.146;11.576;2023-03-18T00:26:58;94730.69;;;14.38;61.36
15444;BME280;7822;48.146;11.576;2023-03-18T00:29:26;94719.25;;;14.39;61.40
15444;BME280;7822;48.146;11.576;2023-03-18T00:31:56;94728.91;;;14.38;61.40
15444;BME280;7822;48.146;11.576;2023-03-18T00:34:24;94732.47;;;14.37;61.19
15444;BME280;7822;48.146;11.576;2023-03-18T00:36:52;94735.06;;;14.37;61.19
15444;BME280;7822;48.146;11.576;2023-03-18T00:39:22;94730.69;;;14.38;61.24
15444;BME280;7822;48.146;11.576;2023-03-18T00:41:55;94745.50;;;14.37;61.42
15444;BME280;7822;48.146;11.576;2023-03-18T00:44:23;94741.13;;;14.38;61.43
15444;BME280;7822;48.146;11.576;2023-03-18T00:46:51;94744.69;;;14.37;61.33
15444;BME280;7822;48.146;11.576;2023-03-18T00:49:20;94742.91;;;14.37;61.35
15444;BME280;7822;48.146;11.576;2023-03-18T00:51:48;94741.28;;;14.36;60.95
15444;BME280;7822;48.146;11.576;2023-03-18T00:54:17;94740.28;;;14.37;61.59
15444;BME280;7822;48.146;11.576;2023-03-18T00:56:46;94742.91;;;14.37;61.10
15444;BME280;7822;48.146;11.576;2023-03-18T00:59:14;94746.34;;;14.38;61.45
15444;BME280;7822;48.146;11.576;2023-03-18T01:01:41;94747.31;;;14.37;60.96
15444;BME280;7822;48.146;11.576;2023-03-18T01:04:09;94744.69;;;14.37;61.28
15444;BME280;7822;48.146;11.576;2023-03-18T01:06:38;94745.50;;;14.37;61.22
15444;BME280;7822;48.146;11.576;2023-03-18T01:09:06;94748.28;;;14.36;61.16
15444;BME280;7822;48.146;11.576;2023-03-18T01:11:37;94743.06;;;14.36;61.27
15444;BME280;7822;48.146;11.576;2023-03-18T01:14:05;94742.91;;;14.37;61.22
15444;BME280;7822;48.146;11.576;2023-03-18T01:16:32;94742.91;;;14.37;61.16
15444;BME280;7822;48.146;11.576;2023-03-18T01:19:00;94745.50;;;14.37;61.16
15444;BME280;7822;48.146;11.576;2023-03-18T01:21:29;94748.13;;;14.37;60.92
15444;BME280;7822;48.146;11.576;2023-03-18T01:23:58;94747.31;;;14.37;61.15
15444;BME280;7822;48.146;11.576;2023-03-18T01:26:26;94738.69;;;14.36;61.16
15444;BME280;7822;48.146;11.576;2023-03-18T01:28:54;94748.13;;;14.37;61.10
15444;BME280;7822;48.146;11.576;2023-03-18T01:31:22;94744.69;;;14.37;60.83
15444;BME280;7822;48.146;11.576;2023-03-18T01:33:50;94742.91;;;14.37;61.26
15444;BME280;7822;48.146;11.576;2023-03-18T01:36:18;94742.91;;;14.37;61.12
15444;BME280;7822;48.146;11.576;2023-03-18T01:38:47;94742.06;;;14.37;61.09
15444;BME280;7822;48.146;11.576;2023-03-18T01:41:16;94748.13;;;14.37;60.99
15444;BME280;7822;48.146;11.576;2023-03-18T01:43:44;94744.69;;;14.37;60.86
15444;BME280;7822;48.146;11.576;2023-03-18T01:46:34;94742.06;;;14.37;61.31
15444;BME280;7822;48.146;11.576;2023-03-18T01:49:05;94747.31;;;14.37;61.57
15444;BME280;7822;48.146;11.576;2023-03-18T01:51:34;94742.06;;;14.37;61.05
15444;BME280;7822;48.146;11.576;2023-03-18T01:54:04;94755.13;;;14.37;60.97
15444;BME280;7822;48.146;11.576;2023-03-18T01:56:35;94748.13;;;14.37;61.26
15444;BME280;7822;48.146;11.576;2023-03-18T01:59:05;94750.91;;;14.36;61.26
15444;BME280;7822;48.146;11.576;2023-03-18T02:01:37;94746.50;;;14.36;60.95
15444;BME280;7822;48.146;11.576;2023-03-18T02:04:07;94753.50;;;14.36;61.11
15444;BME280;7822;48.146;11.576;2023-03-18T02:06:36;94740.47;;;14.36;60.85
15444;BME280;7822;48.146;11.576;2023-03-18T02:09:05;94747.47;;;14.35;61.22
15444;BME280;7822;48.146;11.576;2023-03-18T02:11:39;94748.28;;;14.36;61.05
15444;BME280;7822;48.146;11.576;2023-03-18T02:14:10;94757.06;;;14.35;60.85
15444;BME280;7822;48.146;11.576;2023-03-18T02:16:42;94757.75;;;14.37;61.24
15444;BME280;7822;48.146;11.576;2023-03-18T02:19:20;94758.88;;;14.34;61.07
15444;BME280;7822;48.146;11.576;2023-03-18T02:21:54;94755.28;;;14.35;61.07
15444;BME280;7822;48.146;11.576;2023-03-18T02:24:32;94762.97;;;14.37;61.21
15444;BME280;7822;48.146;11.576;2023-03-18T02:27:13;94769.16;;;14.36;61.15
15444;BME280;7822;48.146;11.576;2023-03-18T02:29:42;94763.13;;;14.35;61.15
15444;BME280;7822;48.146;11.576;2023-03-18T02:32:11;94769.16;;;14.36;61.34
15444;BME280;7822;48.146;11.576;2023-03-18T02:34:41;94766.56;;;14.36;61.16
15444;BME280;7822;48.146;11.576;2023-03-18T02:37:09;94770.94;;;14.35;61.37
15444;BME280;7822;48.146;11.576;2023-03-18T02:39:37;94765.91;;;14.34;61.41
15444;BME280;7822;48.146;11.576;2023-03-18T02:42:05;94765.72;;;14.35;61.24
15444;BME280;7822;48.146;11.576;2023-03-18T02:44:39;94771.91;;;14.34;61.14
15444;BME280;7822;48.146;11.576;2023-03-18T02:47:10;94763.28;;;14.34;61.12
15444;BME280;7822;48.146;11.576;2023-03-18T02:49:39;94767.69;;;14.33;61.13
15444;BME280;7822;48.146;11.576;2023-03-18T02:52:08;94768.50;;;14.34;61.31
15444;BME280;7822;48.146;11.576;2023-03-18T02:54:35;94776.34;;;14.34;61.27
15444;BME280;7822;48.146;11.576;2023-03-18T02:57:03;94781.56;;;14.34;61.29
15444;BME280;7822;48.146;11.576;2023-03-18T02:59:31;94786.78;;;14.34;61.62
15444;BME280;7822;48.146;11.576;2023-03-18T03:02:00;94784.00;;;14.35;60.96
15444;BME280;7822;48.146;11.576;2023-03-18T03:04:29;94784.97;;;14.34;61.49
15444;BME280;7822;48.146;11.576;2023-03-18T03:06:57;94789.22;;;14.35;61.40
15444;BME280;7822;48.146;11.576;2023-03-18T03:09:26;94791.00;;;14.35;61.15
15444;BME280;7822;48.146;11.576;2023-03-18T03:11:54;94793.59;;;14.35;61.27
15444;BME280;7822;48.146;11.576;2023-03-18T03:14:22;94800.63;;;14.34;61.13
15444;BME280;7822;48.146;11.576;2023-03-18T03:16:49;94798.81;;;14.35;61.19
15444;BME280;7822;48.146;11.576;2023-03-18T03:19:18;94803.09;;;14.36;61.23
15444;BME280;7822;48.146;11.576;2023-03-18T03:21:46;94803.09;;;14.36;61.25
15444;BME280;7822;48.146;11.576;2023-03-18T03:24:13;94810.91;;;14.36;61.09
15444;BME280;7822;48.146;11.576;2023-03-18T03:26:41;94810.91;;;14.36;61.15
15444;BME280;7822;48.146;11.576;2023-03-18T03:29:09;94812.69;;;14.35;61.15
15444;BME280;7822;48.146;11.576;2023-03-18T03:31:38;94817.09;;;14.35;61.15
15444;BME280;7822;48.146;11.576;2023-03-18T03:34:05;94812.69;;;14.35;60.87
15444;BME280;7822;48.146;11.576;2023-03-18T03:36:35;94817.09;;;14.35;61.09
15444;BME280;7822;48.146;11.576;2023-03-18T03:39:03;94817.09;;;14.35;61.19
15444;BME280;7822;48.146;11.576;2023-03-18T03:41:31;94817.91;;;14.35;61.16
15444;BME280;7822;48.146;11.576;2023-03-18T03:43:59;94812.88;;;14.34;61.26
15444;BME280;7822;48.146;11.576;2023-03-18T03:46:27;94818.09;;;14.34;60.90
15444;BME280;7822;48.146;11.576;2023-03-18T03:48:54;94818.09;;;14.34;61.09
15444;BME280;7822;48.146;11.576;2023-03-18T03:51:22;94807.66;;;14.34;60.96
15444;BME280;7822;48.146;11.576;2023-03-18T03:53:51;94823.31;;;14.34;61.13
15444;BME280;7822;48.146;11.576;2023-03-18T03:56:19;94821.66;;;14.33;60.85
15444;BME280;7822;48.146;11.576;2023-03-18T03:58:47;94825.91;;;14.34;61.07
15444;BME280;7822;48.146;11.576;2023-03-18T04:01:15;94819.88;;;14.33;61.06
15444;BME280;7822;48.146;11.576;2023-03-18T04:03:43;94823.31;;;14.34;61.05
15444;BME280;7822;48.146;11.576;2023-03-18T04:06:10;94830.31;;;14.33;61.13
15444;BME280;7822;48.146;11.576;2023-03-18T04:08:38;94840.75;;;14.33;61.16
15444;BME280;7822;48.146;11.576;2023-03-18T04:11:08;94828.66;;;14.32;61.15
15444;BME280;7822;48.146;11.576;2023-03-18T04:13:36;94841.69;;;14.32;61.20
15444;BME280;7822;48.146;11.576;2023-03-18T04:16:04;94840.91;;;14.32;60.94
15444;BME280;7822;48.146;11.576;2023-03-18T04:18:33;94834.69;;;14.33;61.03
15444;BME280;7822;48.146;11.576;2023-03-18T04:21:00;94831.25;;;14.32;60.79
15444;BME280;7822;48.146;11.576;2023-03-18T04:23:28;94841.69;;;14.32;61.04
15444;BME280;7822;48.146;11.576;2023-03-18T04:25:58;94834.88;;;14.31;61.33
15444;BME280;7822;48.146;11.576;2023-03-18T04:28:28;94838.28;;;14.32;61.06
15444;BME280;7822;48.146;11.576;2023-03-18T04:30:55;94832.25;;;14.31;61.13
15444;BME280;7822;48.146;11.576;2023-03-18T04:33:23;94840.91;;;14.32;61.26
15444;BME280;7822;48.146;11.576;2023-03-18T04:35:51;94840.91;;;14.32;61.40
15444;BME280;7822;48.146;11.576;2023-03-18T04:38:19;94847.75;;;14.33;61.18
15444;BME280;7822;48.146;11.576;2023-03-18T04:40:46;94839.91;;;14.33;61.16
15444;BME280;7822;48.146;11.576;2023-03-18T04:43:14;94840.91;;;14.32;61.16
15444;BME280;7822;48.146;11.576;2023-03-18T04:45:43;94846.13;;;14.32;61.41
15444;BME280;7822;48.146;11.576;2023-03-18T04:48:11;94844.31;;;14.32;61.36
15444;BME280;7822;48.146;11.576;2023-03-18T04:50:38;94849.53;;;14.32;61.19
15444;BME280;7822;48.146;11.576;2023-03-18T04:53:06;94848.72;;;14.32;61.12
15444;BME280;7822;48.146;11.576;2023-03-18T04:55:34;94842.53;;;14.33;61.26
15444;BME280;7822;48.146;11.576;2023-03-18T04:58:02;94835.69;;;14.32;61.35
15444;BME280;7822;48.146;11.576;2023-03-18T05:00:29;94842.53;;;14.33;61.04
15444;BME280;7822;48.146;11.576;2023-03-18T05:02:59;94842.38;;;14.34;60.79
15444;BME280;7822;48.146;11.576;2023-03-18T05:05:26;94838.97;;;14.34;60.92
15444;BME280;7822;48.146;11.576;2023-03-18T05:07:54;94839.75;;;14.34;61.27
15444;BME280;7822;48.146;11.576;2023-03-18T05:10:22;94839.63;;;14.36;61.10
15444;BME280;7822;48.146;11.576;2023-03-18T05:12:49;94833.56;;;14.35;61.26
15444;BME280;7822;48.146;11.576;2023-03-18T05:15:17;94839.63;;;14.36;61.50
15444;BME280;7822;48.146;11.576;2023-03-18T05:17:45;94838.63;;;14.37;61.20
15444;BME280;7822;48.146;11.576;2023-03-18T05:20:14;94838.50;;;14.38;61.17
15444;BME280;7822;48.146;11.576;2023-03-18T05:22:42;94844.69;;;14.37;60.84
15444;BME280;7822;48.146;11.576;2023-03-18T05:25:10;94845.50;;;14.38;61.08
15444;BME280;7822;48.146;11.576;2023-03-18T05:27:38;94845.50;;;14.38;61.46
15444;BME280;7822;48.146;11.576;2023-03-18T05:30:07;94841.91;;;14.39;61.26
15444;BME280;7822;48.146;11.576;2023-03-18T05:32:36;94836.84;;;14.37;61.20
15444;BME280;7822;48.146;11.576;2023-03-18T05:35:05;94844.50;;;14.39;61.34
15444;BME280;7822;48.146;11.576;2023-03-18T05:37:34;94848.09;;;14.38;61.47
15444;BME280;7822;48.146;11.576;2023-03-18T05:40:02;94838.50;;;14.38;61.20
15444;BME280;7822;48.146;11.576;2023-03-18T05:42:30;94852.34;;;14.39;61.21
15444;BME280;7822;48.146;11.576;2023-03-18T05:45:02;94854.16;;;14.38;61.11
15444;BME280;7822;48.146;11.576;2023-03-18T05:47:30;94853.31;;;14.38;61.14
15444;BME280;7822;48.146;11.576;2023-03-18T05:49:58;94853.31;;;14.38;61.19
15444;BME280;7822;48.146;11.576;2023-03-18T05:52:26;94864.59;;;14.38;61.18
15444;BME280;7822;48.146;11.576;2023-03-18T05:54:56;94859.38;;;14.38;61.28
15444;BME280;7822;48.146;11.576;2023-03-18T05:57:23;94864.59;;;14.38;60.94
15444;BME280;7822;48.146;11.576;2023-03-18T05:59:51;94861.97;;;14.38;60.94
15444;BME280;7822;48.146;11.576;2023-03-18T06:02:19;94868.97;;;14.38;61.22
15444;BME280;7822;48.146;11.576;2023-03-18T06:04:46;94863.75;;;14.38;61.08
15444;BME280;7822;48.146;11.576;2023-03-18T06:07:14;94861.81;;;14.40;61.24
15444;BME280;7822;48.146;11.576;2023-03-18T06:09:42;94863.59;;;14.39;61.09
15444;BME280;7822;48.146;11.576;2023-03-18T06:12:11;94861.00;;;14.39;61.30
15444;BME280;7822;48.146;11.576;2023-03-18T06:14:39;94861.00;;;14.39;61.26
15444;BME280;7822;48.146;11.576;2023-03-18T06:17:06;94854.94;;;14.39;61.33
15444;BME280;7822;48.146;11.576;2023-03-18T06:19:34;94855.78;;;14.39;61.47
15444;BME280;7822;48.146;11.576;2023-03-18T06:22:02;94867.84;;;14.40;61.39
15444;BME280;7822;48.146;11.576;2023-03-18T06:24:30;94870.78;;;14.37;60.71
15444;BME280;7822;48.146;11.576;2023-03-18T06:26:57;94865.72;;;14.36;60.73
15444;BME280;7822;48.146;11.576;2023-03-18T06:29:26;94868.47;;;14.34;60.91
15444;BME280;7822;48.146;11.576;2023-03-18T06:31:55;94869.59;;;14.32;60.73
15444;BME280;7822;48.146;11.576;2023-03-18T06:34:22;94867.78;;;14.32;60.40
15444;BME280;7822;48.146;11.576;2023-03-18T06:36:50;94870.56;;;14.31;60.39
15444;BME280;7822;48.146;11.576;2023-03-18T06:39:18;94870.56;;;14.31;60.30
15444;BME280;7822;48.146;11.576;2023-03-18T06:41:46;94861.13;;;14.30;60.32
15444;BME280;7822;48.146;11.576;2023-03-18T06:44:14;94875.94;;;14.29;59.59
15444;BME280;7822;48.146;11.576;2023-03-18T06:46:43;94872.66;;;14.27;58.01
15444;BME280;7822;48.146;11.576;2023-03-18T06:49:11;94870.03;;;14.27;57.75
15444;BME280;7822;48.146;11.576;2023-03-18T06:51:40;94871.00;;;14.26;56.61
15444;BME280;7822;48.146;11.576;2023-03-18T06:54:09;94870.16;;;14.26;55.78
15444;BME280;7822;48.146;11.576;2023-03-18T06:56:37;94875.25;;;14.27;56.20
15444;BME280;7822;48.146;11.576;2023-03-18T06:59:07;94869.22;;;14.27;56.57
15444;BME280;7822;48.146;11.576;2023-03-18T07:01:36;94878.66;;;14.28;56.53
15444;BME280;7822;48.146;11.576;2023-03-18T07:04:05;94877.03;;;14.27;57.54
15444;BME280;7822;48.146;11.576;2023-03-18T07:06:33;94875.25;;;14.27;57.60
15444;BME280;7822;48.146;11.576;2023-03-18T07:09:01;94877.03;;;14.27;57.47
15444;BME280;7822;48.146;11.576;2023-03-18T07:11:29;94875.25;;;14.27;57.47
15444;BME280;7822;48.146;11.576;2023-03-18T07:13:57;94877.03;;;14.27;57.25
15444;BME280;7822;48.146;11.576;2023-03-18T07:16:25;94872.78;;;14.26;56.32
15444;BME280;7822;48.146;11.576;2023-03-18T07:18:53;94879.81;;;14.25;55.62
15444;BME280;7822;48.146;11.576;2023-03-18T07:21:25;94880.59;;;14.26;55.62
15444;BME280;7822;48.146;11.576;2023-03-18T07:23:53;94880.75;;;14.24;54.82
15444;BME280;7822;48.146;11.576;2023-03-18T07:26:21;94883.53;;;14.23;54.73
15444;BME280;7822;48.146;11.576;2023-03-18T07:28:49;94887.09;;;14.22;54.13
15444;BME280;7822;48.146;11.576;2023-03-18T07:31:17;94881.88;;;14.22;55.62
15444;BME280;7822;48.146;11.576;2023-03-18T07:33:45;94882.88;;;14.21;55.03
15444;BME280;7822;48.146;11.576;2023-03-18T07:36:14;94883.00;;;14.19;54.35
15444;BME280;7822;48.146;11.576;2023-03-18T07:38:43;94882.06;;;14.20;54.85
15444;BME280;7822;48.146;11.576;2023-03-18T07:41:11;94882.22;;;14.19;54.40
15444;BME280;7822;48.146;11.576;2023-03-18T07:43:39;94882.22;;;14.19;54.96
15444;BME280;7822;48.146;11.576;2023-03-18T07:46:07;94886.44;;;14.20;55.15
15444;BME280;7822;48.146;11.576;2023-03-18T07:48:34;94892.66;;;14.19;54.76
15444;BME280;7822;48.146;11.576;2023-03-18T07:51:02;94889.88;;;14.20;55.77
15444;BME280;7822;48.146;11.576;2023-03-18T07:53:30;94894.09;;;14.21;56.10
15444;BME280;7822;48.146;11.576;2023-03-18T07:56:00;94886.94;;;14.23;56.40
15444;BME280;7822;48.146;11.576;2023-03-18T07:58:28;94892.03;;;14.25;56.42
15444;BME280;7822;48.146;11.576;2023-03-18T08:00:56;94890.91;;;14.27;56.25
15444;BME280;7822;48.146;11.576;2023-03-18T08:03:25;94891.69;;;14.28;56.10
15444;BME280;7822;48.146;11.576;2023-03-18T08:05:53;94890.63;;;14.30;56.51
15444;BME280;7822;48.146;11.576;2023-03-18T08:08:21;94892.09;;;14.33;56.69
15444;BME280;7822;48.146;11.576;2023-03-18T08:10:50;94896.38;;;14.34;56.92
15444;BME280;7822;48.146;11.576;2023-03-18T08:13:19;94888.38;;;14.35;56.72
15444;BME280;7822;48.146;11.576;2023-03-18T08:15:47;94896.19;;;14.35;57.05
15444;BME280;7822;48.146;11.576;2023-03-18T08:18:14;94895.06;;;14.38;57.27
15444;BME280;7822;48.146;11.576;2023-03-18T08:20:42;94898.50;;;14.38;57.61
15444;BME280;7822;48.146;11.576;2023-03-18T08:23:09;94904.53;;;14.39;57.22
15444;BME280;7822;48.146;11.576;2023-03-18T08:25:38;94900.97;;;14.40;57.66
15444;BME280;7822;48.146;11.576;2023-03-18T08:28:05;94897.53;;;14.39;57.48
15444;BME280;7822;48.146;11.576;2023-03-18T08:30:37;94899.19;;;14.40;57.68
15444;BME280;7822;48.146;11.576;2023-03-18T08:33:05;94901.78;;;14.40;57.78
15444;BME280;7822;48.146;11.576;2023-03-18T08:35:33;94894.91;;;14.39;57.95
15444;BME280;7822;48.146;11.576;2023-03-18T08:38:01;94895.56;;;14.41;58.00
15444;BME280;7822;48.146;11.576;2023-03-18T08:40:29;94897.34;;;14.41;58.23
15444;BME280;7822;48.146;11.576;2023-03-18T08:43:00;94892.16;;;14.41;57.91
15444;BME280;7822;48.146;11.576;2023-03-18T08:45:27;94889.41;;;14.42;58.14
15444;BME280;7822;48.146;11.576;2023-03-18T08:47:57;94890.34;;;14.41;57.82
15444;BME280;7822;48.146;11.576;2023-03-18T08:50:25;94895.44;;;14.43;57.98
15444;BME280;7822;48.146;11.576;2023-03-18T08:52:55;94895.44;;;14.43;57.97
15444;BME280;7822;48.146;11.576;2023-03-18T08:55:28;94903.28;;;14.43;58.17
15444;BME280;7822;48.146;11.576;2023-03-18T08:57:57;94902.44;;;14.42;58.21
15444;BME280;7822;48.146;11.576;2023-03-18T09:00:26;94898.06;;;14.43;58.57
15444;BME280;7822;48.146;11.576;2023-03-18T09:02:53;94891.03;;;14.43;58.50
15444;BME280;7822;48.146;11.576;2023-03-18T09:05:23;94890.22;;;14.43;58.45
15444;BME280;7822;48.146;11.576;2023-03-18T09:07:51;94885.81;;;14.43;58.25
15444;BME280;7822;48.146;11.576;2023-03-18T09:10:19;94890.06;;;14.44;58.47
15444;BME280;7822;48.146;11.576;2023-03-18T09:12:47;94890.88;;;14.45;58.56
15444;BME280;7822;48.146;11.576;2023-03-18T09:15:16;94888.28;;;14.45;58.43
15444;BME280;7822;48.146;11.576;2023-03-18T09:17:45;94888.13;;;14.46;58.48
15444;BME280;7822;48.146;11.576;2023-03-18T09:20:35;94881.25;;;14.45;58.51
15444;BME280;7822;48.146;11.576;2023-03-18T09:23:03;94882.06;;;14.46;58.37
15444;BME280;7822;48.146;11.576;2023-03-18T09:25:31;94879.47;;;14.46;58.59
15444;BME280;7822;48.146;11.576;2023-03-18T09:28:00;94886.47;;;14.45;58.45
15444;BME280;7822;48.146;11.576;2023-03-18T09:30:27;94884.69;;;14.46;58.60
15444;BME280;7822;48.146;11.576;2023-03-18T09:32:55;94888.13;;;14.46;58.67
15444;BME280;7822;48.146;11.576;2023-03-18T09:35:24;94886.34;;;14.47;58.76
15444;BME280;7822;48.146;11.576;2023-03-18T09:37:53;94890.56;;;14.48;58.62
15444;BME280;7822;48.146;11.576;2023-03-18T09:40:24;94889.59;;;14.49;58.81
15444;BME280;7822;48.146;11.576;2023-03-18T09:42:59;94885.34;;;14.48;58.83
15444;BME280;7822;48.146;11.576;2023-03-18T09:45:33;94887.00;;;14.49;59.10
15444;BME280;7822;48.146;11.576;2023-03-18T09:48:34;94878.34;;;14.48;58.61
15444;BME280;7822;48.146;11.576;2023-03-18T09:51:15;94880.78;;;14.50;59.09
15444;BME280;7822;48.146;11.576;2023-03-18T09:53:52;94878.16;;;14.50;58.91
15444;BME280;7822;48.146;11.576;2023-03-18T09:56:24;94878.16;;;14.50;58.70
15444;BME280;7822;48.146;11.576;2023-03-18T09:58:56;94873.78;;;14.50;58.62
15444;BME280;7822;48.146;11.576;2023-03-18T10:01:26;94882.44;;;14.51;59.23
15444;BME280;7822;48.146;11.576;2023-03-18T10:03:58;94885.03;;;14.51;58.95
15444;BME280;7822;48.146;11.576;2023-03-18T10:06:29;94890.25;;;14.51;58.90
15444;BME280;7822;48.146;11.576;2023-03-18T10:09:05;94893.69;;;14.51;58.94
15444;BME280;7822;48.146;11.576;2023-03-18T10:11:38;94890.44;;;14.49;59.18
15444;BME280;7822;48.146;11.576;2023-03-18T10:14:17;94889.28;;;14.52;59.06
15444;BME280;7822;48.146;11.576;2023-03-18T10:16:57;94891.88;;;14.52;59.33
15444;BME280;7822;48.146;11.576;2023-03-18T10:19:30;94888.63;;;14.50;59.15
15444;BME280;7822;48.146;11.576;2023-03-18T10:22:11;94890.44;;;14.49;59.13
15444;BME280;7822;48.146;11.576;2023-03-18T10:24:47;94884.06;;;14.52;59.22
15444;BME280;7822;48.146;11.576;2023-03-18T10:27:23;94879.81;;;14.51;59.43
15444;BME280;7822;48.146;11.576;2023-03-18T10:29:56;94879.81;;;14.51;59.15
15444;BME280;7822;48.146;11.576;2023-03-18T10:32:34;94882.25;;;14.52;59.21
15444;BME280;7822;48.146;11.576;2023-03-18T10:35:25;94878.84;;;14.52;59.01
15444;BME280;7822;48.146;11.576;2023-03-18T10:37:56;94879.00;;;14.50;59.09
15444;BME280;7822;48.146;11.576;2023-03-18T10:40:34;94880.66;;;14.51;59.04
15444;BME280;7822;48.146;11.576;2023-03-18T10:43:02;94882.44;;;14.51;59.21
15444;BME280;7822;48.146;11.576;2023-03-18T10:45:32;94871.00;;;14.52;59.18
15444;BME280;7822;48.146;11.576;2023-03-18T10:48:03;94869.22;;;14.52;59.22
15444;BME280;7822;48.146;11.576;2023-03-18T10:50:36;94869.22;;;14.52;59.05
15444;BME280;7822;48.146;11.576;2023-03-18T10:53:14;94861.38;;;14.52;59.37
15444;BME280;7822;48.146;11.576;2023-03-18T10:55:51;94861.38;;;14.52;59.37
15444;BME280;7822;48.146;11.576;2023-03-18T10:58:22;94851.94;;;14.51;59.30
15444;BME280;7822;48.146;11.576;2023-03-18T11:00:50;94851.94;;;14.51;59.32
15444;BME280;7822;48.146;11.576;2023-03-18T11:03:21;94844.91;;;14.52;59.03
15444;BME280;7822;48.146;11.576;2023-03-18T11:05:50;94851.78;;;14.53;59.51
15444;BME280;7822;48.146;11.576;2023-03-18T11:08:31;94851.78;;;14.53;59.23
15444;BME280;7822;48.146;11.576;2023-03-18T11:11:32;94846.56;;;14.53;59.51
15444;BME280;7822;48.146;11.576;2023-03-18T11:14:01;94841.34;;;14.53;59.64
15444;BME280;7822;48.146;11.576;2023-03-18T11:16:34;94843.13;;;14.52;59.46
15444;BME280;7822;48.146;11.576;2023-03-18T11:19:21;94836.94;;;14.53;59.61
15444;BME280;7822;48.146;11.576;2023-03-18T11:21:59;94832.53;;;14.54;59.53
15444;BME280;7822;48.146;11.576;2023-03-18T11:24:27;94823.06;;;14.53;59.54
15444;BME280;7822;48.146;11.576;2023-03-18T11:27:23;94822.22;;;14.52;59.42
15444;BME280;7822;48.146;11.576;2023-03-18T11:29:54;94822.91;;;14.54;59.50
15444;BME280;7822;48.146;11.576;2023-03-18T11:32:25;94816.88;;;14.54;59.46
15444;BME280;7822;48.146;11.576;2023-03-18T11:34:54;94820.28;;;14.54;59.34
15444;BME280;7822;48.146;11.576;2023-03-18T11:37:29;94821.09;;;14.55;59.48
15444;BME280;7822;48.146;11.576;2023-03-18T11:40:23;94816.88;;;14.54;59.81
15444;BME280;7822;48.146;11.576;2023-03-18T11:42:58;94804.63;;;14.54;59.85
15444;BME280;7822;48.146;11.576;2023-03-18T11:45:45;94807.22;;;14.54;59.54
15444;BME280;7822;48.146;11.576;2023-03-18T11:48:20;94800.41;;;14.53;59.57
15444;BME280;7822;48.146;11.576;2023-03-18T11:50:59;94784.72;;;14.53;59.58
15444;BME280;7822;48.146;11.576;2023-03-18T11:53:36;94789.13;;;14.53;59.56
15444;BME280;7822;48.146;11.576;2023-03-18T11:56:11;94790.78;;;14.54;59.24
15444;BME280;7822;48.146;11.576;2023-03-18T11:59:07;94780.47;;;14.52;59.63
15444;BME280;7822;48.146;11.576;2023-03-18T12:01:46;94788.16;;;14.54;59.70
15444;BME280;7822;48.146;11.576;2023-03-18T12:04:32;94775.13;;;14.54;59.79
15444;BME280;7822;48.146;11.576;2023-03-18T12:07:14;94770.84;;;14.53;59.51
15444;BME280;7822;48.146;11.576;2023-03-18T12:09:48;94767.28;;;14.54;59.92
15444;BME280;7822;48.146;11.576;2023-03-18T12:12:38;94769.06;;;14.53;59.88
15444;BME280;7822;48.146;11.576;2023-03-18T12:15:17;94759.47;;;14.54;59.47
15444;BME280;7822;48.146;11.576;2023-03-18T12:17:55;94768.91;;;14.55;59.34
15444;BME280;7822;48.146;11.576;2023-03-18T12:20:40;94775.78;;;14.56;59.69
15444;BME280;7822;48.146;11.576;2023-03-18T12:23:27;94768.75;;;14.56;59.75
15444;BME280;7822;48.146;11.576;2023-03-18T12:26:01;94774.78;;;14.57;59.53
15444;BME280;7822;48.146;11.576;2023-03-18T12:28:46;94771.34;;;14.56;59.90
15444;BME280;7822;48.146;11.576;2023-03-18T12:31:29;94771.34;;;14.56;59.62
15444;BME280;7822;48.146;11.576;2023-03-18T12:34:02;94767.94;;;14.56;59.82
15444;BME280;7822;48.146;11.576;2023-03-18T12:36:42;94769.56;;;14.57;59.52
15444;BME280;7822;48.146;11.576;2023-03-18T12:39:42;94753.06;;;14.56;59.45
15444;BME280;7822;48.146;11.576;2023-03-18T12:42:16;94757.34;;;14.57;59.69
15444;BME280;7822;48.146;11.576;2023-03-18T12:44:54;94756.50;;;14.57;59.61
15444;BME280;7822;48.146;11.576;2023-03-18T12:47:30;94758.16;;;14.58;59.86
15444;BME280;7822;48.146;11.576;2023-03-18T12:50:05;94758.00;;;14.59;59.50
15444;BME280;7822;48.146;11.576;2023-03-18T12:52:38;94771.03;;;14.59;59.79
15444;BME280;7822;48.146;11.576;2023-03-18T12:55:12;94761.44;;;14.60;59.85
15444;BME280;7822;48.146;11.576;2023-03-18T12:57:44;94758.81;;;14.60;59.70
15444;BME280;7822;48.146;11.576;2023-03-18T13:00:21;94764.88;;;14.60;59.67
15444;BME280;7822;48.146;11.576;2023-03-18T13:03:14;94754.41;;;14.60;59.77
15444;BME280;7822;48.146;11.576;2023-03-18T13:05:51;94760.44;;;14.61;59.84
15444;BME280;7822;48.146;11.576;2023-03-18T13:08:43;94756.22;;;14.60;59.89
15444;BME280;7822;48.146;11.576;2023-03-18T13:11:25;94765.66;;;14.61;59.95
15444;BME280;7822;48.146;11.576;2023-03-18T13:13:59;94757.81;;;14.61;59.81
15444;BME280;7822;48.146;11.576;2023-03-18T13:16:31;94756.22;;;14.60;59.77
15444;BME280;7822;48.146;11.576;2023-03-18T13:19:02;94757.03;;;14.60;60.02
15444;BME280;7822;48.146;11.576;2023-03-18T13:21:35;94759.63;;;14.60;60.04